createdAt,value
2018-08-30T00:01:40.468Z,74.72
2018-08-30T00:04:09.165Z,74.57
2018-08-30T00:06:37.850Z,74.08
2018-08-30T00:09:06.816Z,74.01
2018-08-30T00:11:35.517Z,74.10
2018-08-30T00:14:04.224Z,74.00
2018-08-30T00:16:32.879Z,73.85
2018-08-30T00:19:01.780Z,73.92
2018-08-30T00:21:30.482Z,73.78
2018-08-30T00:23:59.100Z,73.30
2018-08-30T00:26:27.823Z,73.18
2018-08-30T00:28:56.540Z,73.01
2018-08-30T00:31:25.209Z,72.91
2018-08-30T00:33:54.053Z,73.17
2018-08-30T00:36:22.721Z,72.98
2018-08-30T00:38:51.396Z,73.14
2018-08-30T00:41:20.086Z,72.98
2018-08-30T00:43:48.731Z,72.64
2018-08-30T00:46:17.417Z,72.76
2018-08-30T00:48:46.070Z,72.47
2018-08-30T00:51:14.734Z,72.21
2018-08-30T00:53:43.407Z,72.25
2018-08-30T00:56:12.104Z,72.27
2018-08-30T00:58:40.749Z,71.96
2018-08-30T01:01:09.388Z,71.41
2018-08-30T01:03:38.099Z,71.12
2018-08-30T01:06:06.763Z,70.82
2018-08-30T01:08:35.432Z,70.72
2018-08-30T01:11:04.104Z,70.78
2018-08-30T01:13:32.788Z,70.40
2018-08-30T01:16:01.438Z,70.41
2018-08-30T01:18:30.178Z,70.27
2018-08-30T01:20:58.888Z,70.24
2018-08-30T01:23:27.536Z,70.05
2018-08-30T01:25:56.220Z,70.03
2018-08-30T01:28:24.924Z,70.20
2018-08-30T01:30:53.588Z,70.06
2018-08-30T01:33:22.223Z,70.14
2018-08-30T01:35:50.926Z,70.21
2018-08-30T01:38:19.671Z,69.97
2018-08-30T01:40:48.332Z,69.70
2018-08-30T01:43:17.237Z,69.70
2018-08-30T01:45:45.839Z,69.87
2018-08-30T01:48:14.519Z,69.36
2018-08-30T01:50:43.170Z,68.95
2018-08-30T01:53:11.836Z,68.94
2018-08-30T01:55:40.523Z,69.23
2018-08-30T01:58:09.210Z,68.58
2018-08-30T02:00:37.855Z,68.79
2018-08-30T02:03:06.544Z,68.74
2018-08-30T02:05:35.189Z,68.27
2018-08-30T02:08:03.869Z,68.25
2018-08-30T02:10:32.570Z,68.08
2018-08-30T02:13:01.232Z,67.64
2018-08-30T02:15:29.899Z,67.72
2018-08-30T02:17:58.569Z,67.51
2018-08-30T02:20:27.195Z,67.35
2018-08-30T02:22:55.861Z,67.53
2018-08-30T02:25:24.507Z,67.45
2018-08-30T02:27:53.168Z,67.83
2018-08-30T02:30:21.859Z,67.76
2018-08-30T02:32:50.498Z,67.93
2018-08-30T02:35:19.168Z,67.65
2018-08-30T02:37:47.831Z,67.95
2018-08-30T02:40:16.506Z,67.93
2018-08-30T02:42:45.152Z,67.99
2018-08-30T02:45:13.830Z,68.23
2018-08-30T02:47:42.526Z,68.38
2018-08-30T02:50:11.187Z,67.98
2018-08-30T02:52:39.860Z,67.86
2018-08-30T02:55:08.751Z,68.30
2018-08-30T02:57:37.418Z,68.73
2018-08-30T03:00:06.115Z,67.68
2018-08-30T03:02:34.764Z,68.94
2018-08-30T03:05:03.420Z,69.56
2018-08-30T03:07:32.104Z,68.52
2018-08-30T03:10:00.814Z,67.64
2018-08-30T03:12:29.459Z,67.78
2018-08-30T03:15:05.480Z,68.31
2018-08-30T03:17:34.362Z,68.37
2018-08-30T03:20:03.681Z,67.96
2018-08-30T03:22:32.366Z,69.28
2018-08-30T03:25:01.017Z,67.83
2018-08-30T03:27:29.836Z,67.08
2018-08-30T03:29:58.526Z,66.19
2018-08-30T03:32:27.356Z,65.16
2018-08-30T03:34:56.341Z,65.13
2018-08-30T03:37:25.001Z,64.41
2018-08-30T03:39:53.658Z,63.71
2018-08-30T03:42:22.310Z,63.88
2018-08-30T03:44:50.982Z,64.00
2018-08-30T03:47:19.669Z,64.49
2018-08-30T03:49:48.352Z,65.76
2018-08-30T03:52:16.991Z,65.51
2018-08-30T03:54:45.667Z,65.28
2018-08-30T03:57:14.343Z,66.26
2018-08-30T03:59:43.034Z,66.62
2018-08-30T04:02:11.709Z,65.29
2018-08-30T04:04:40.389Z,66.10
2018-08-30T04:07:09.077Z,65.67
2018-08-30T04:09:37.742Z,66.60
2018-08-30T04:12:06.380Z,66.92
2018-08-30T04:14:35.047Z,67.57
2018-08-30T04:17:03.716Z,67.18
2018-08-30T04:19:32.370Z,68.28
2018-08-30T04:22:01.136Z,68.36
2018-08-30T04:24:29.739Z,68.17
2018-08-30T04:26:58.397Z,67.83
2018-08-30T04:29:27.050Z,67.74
2018-08-30T04:31:55.699Z,67.72
2018-08-30T04:34:24.408Z,68.21
2018-08-30T04:36:53.190Z,68.33
2018-08-30T04:39:21.853Z,69.02
2018-08-30T04:41:50.557Z,69.96
2018-08-30T04:44:19.211Z,69.89
2018-08-30T04:46:47.887Z,72.15
2018-08-30T04:49:16.559Z,72.30
2018-08-30T04:51:45.256Z,72.37
2018-08-30T04:54:13.923Z,72.77
2018-08-30T04:56:42.617Z,72.66
2018-08-30T04:59:11.287Z,71.36
2018-08-30T05:01:40.018Z,70.92
2018-08-30T05:04:08.684Z,70.82
2018-08-30T05:06:37.442Z,70.16
2018-08-30T05:09:08.600Z,72.45
2018-08-30T05:11:37.304Z,73.20
2018-08-30T05:14:06.355Z,72.71
2018-08-30T05:16:35.088Z,73.98
2018-08-30T05:19:03.667Z,74.93
2018-08-30T05:21:32.494Z,74.62
2018-08-30T05:24:01.186Z,74.02
2018-08-30T05:26:29.874Z,74.47
2018-08-30T05:28:58.539Z,73.76
2018-08-30T05:31:27.195Z,76.87
2018-08-30T05:33:55.883Z,79.49
2018-08-30T05:36:24.562Z,79.99
2018-08-30T05:38:56.596Z,78.82
2018-08-30T05:41:26.365Z,78.09
2018-08-30T05:43:56.497Z,77.56
2018-08-30T05:46:25.789Z,76.95
2018-08-30T05:48:54.790Z,77.69
2018-08-30T05:51:23.493Z,78.37
2018-08-30T05:53:52.189Z,78.54
2018-08-30T05:56:20.849Z,78.26
2018-08-30T05:58:49.535Z,78.44
2018-08-30T06:01:18.525Z,79.48
2018-08-30T06:03:47.195Z,79.14
2018-08-30T06:06:16.153Z,79.91
2018-08-30T06:08:45.784Z,80.38
2018-08-30T06:11:15.466Z,80.35
2018-08-30T06:13:44.107Z,81.93
2018-08-30T06:16:12.787Z,82.12
2018-08-30T06:18:41.446Z,82.47
2018-08-30T06:21:10.159Z,80.74
2018-08-30T06:23:38.830Z,80.44
2018-08-30T06:26:07.566Z,80.15
2018-08-30T06:28:36.264Z,81.31
2018-08-30T06:31:04.952Z,80.19
2018-08-30T06:33:33.661Z,81.23
2018-08-30T06:36:02.376Z,82.07
2018-08-30T06:38:31.215Z,81.90
2018-08-30T06:40:59.862Z,82.60
2018-08-30T06:43:28.635Z,81.59
2018-08-30T06:45:57.342Z,81.94
2018-08-30T06:48:26.079Z,82.62
2018-08-30T06:50:54.688Z,81.81
2018-08-30T06:53:23.418Z,82.12
2018-08-30T06:55:52.121Z,81.85
2018-08-30T06:58:20.764Z,82.02
2018-08-30T07:00:49.413Z,81.97
2018-08-30T07:03:18.073Z,80.98
2018-08-30T07:05:46.706Z,81.51
2018-08-30T07:08:15.529Z,82.28
2018-08-30T07:10:44.038Z,82.41
2018-08-30T07:13:12.773Z,82.97
2018-08-30T07:15:41.430Z,83.14
2018-08-30T07:18:10.152Z,82.74
2018-08-30T07:20:38.832Z,83.03
2018-08-30T07:23:07.508Z,83.50
2018-08-30T07:25:36.248Z,83.89
2018-08-30T07:28:05.064Z,83.80
2018-08-30T07:30:33.798Z,84.12
2018-08-30T07:33:02.464Z,84.11
2018-08-30T07:35:31.139Z,84.51
2018-08-30T07:37:59.800Z,83.34
2018-08-30T07:40:28.475Z,83.75
2018-08-30T07:42:57.251Z,83.80
2018-08-30T07:45:25.935Z,83.78
2018-08-30T07:47:54.630Z,84.20
2018-08-30T07:50:23.311Z,84.76
2018-08-30T07:52:52.072Z,84.22
2018-08-30T07:55:20.687Z,84.31
2018-08-30T07:57:49.375Z,84.45
2018-08-30T08:00:18.253Z,83.90
2018-08-30T08:02:47.624Z,84.43
2018-08-30T08:05:16.283Z,85.05
2018-08-30T08:07:45.034Z,84.86
2018-08-30T08:10:13.765Z,84.89
2018-08-30T08:12:42.495Z,85.39
2018-08-30T08:15:11.146Z,84.88
2018-08-30T08:17:40.777Z,85.41
2018-08-30T08:20:09.516Z,85.38
2018-08-30T08:22:38.191Z,83.12
2018-08-30T08:25:06.846Z,84.10
2018-08-30T08:27:35.530Z,85.98
2018-08-30T08:30:04.252Z,86.27
2018-08-30T08:32:32.897Z,86.78
2018-08-30T08:35:01.560Z,86.72
2018-08-30T08:37:30.216Z,86.85
2018-08-30T08:39:58.907Z,87.69
2018-08-30T08:42:27.615Z,88.20
2018-08-30T08:44:56.249Z,88.17
2018-08-30T08:47:24.886Z,87.60
2018-08-30T08:49:53.523Z,86.24
2018-08-30T08:52:22.188Z,84.43
2018-08-30T08:54:50.875Z,86.73
2018-08-30T08:57:19.543Z,87.46
2018-08-30T08:59:48.250Z,87.45
2018-08-30T09:02:16.906Z,87.91
2018-08-30T09:04:45.539Z,87.88
2018-08-30T09:07:14.324Z,87.89
2018-08-30T09:09:42.885Z,87.78
2018-08-30T09:12:11.499Z,87.79
2018-08-30T09:14:40.198Z,89.04
2018-08-30T09:17:08.876Z,88.93
2018-08-30T09:19:37.497Z,88.97
2018-08-30T09:22:06.191Z,89.21
2018-08-30T09:24:34.897Z,89.26
2018-08-30T09:27:03.668Z,88.77
2018-08-30T09:29:32.320Z,89.42
2018-08-30T09:32:01.242Z,88.88
2018-08-30T09:34:29.955Z,88.77
2018-08-30T09:36:58.579Z,90.21
2018-08-30T09:39:27.279Z,89.81
2018-08-30T09:41:55.936Z,88.88
2018-08-30T09:44:24.608Z,88.65
2018-08-30T09:46:53.279Z,88.42
2018-08-30T09:49:22.010Z,87.85
2018-08-30T09:51:50.600Z,88.63
2018-08-30T09:54:20.121Z,88.14
2018-08-30T09:56:48.863Z,88.20
2018-08-30T09:59:17.492Z,87.89
2018-08-30T10:01:49.185Z,87.73
2018-08-30T10:04:18.677Z,87.69
2018-08-30T10:06:47.325Z,88.24
2018-08-30T10:09:16.037Z,87.50
2018-08-30T10:11:44.795Z,89.26
2018-08-30T10:14:13.458Z,88.47
2018-08-30T10:16:42.111Z,89.42
2018-08-30T10:19:10.771Z,89.07
2018-08-30T10:21:39.523Z,88.97
2018-08-30T10:24:08.177Z,89.43
2018-08-30T10:26:36.876Z,88.55
2018-08-30T10:29:05.941Z,89.48
2018-08-30T10:31:34.663Z,89.52
2018-08-30T10:34:03.297Z,89.01
2018-08-30T10:36:31.965Z,89.10
2018-08-30T10:39:01.007Z,89.08
2018-08-30T10:41:29.703Z,88.62
2018-08-30T10:43:58.378Z,87.48
2018-08-30T10:46:27.059Z,87.51
2018-08-30T10:48:55.758Z,86.57
2018-08-30T10:51:24.731Z,87.01
2018-08-30T10:53:53.382Z,87.39
2018-08-30T10:56:22.102Z,86.95
2018-08-30T10:58:50.757Z,86.13
2018-08-30T11:01:19.481Z,86.58
2018-08-30T11:03:48.231Z,86.37
2018-08-30T11:06:16.903Z,86.58
2018-08-30T11:08:45.551Z,86.64
2018-08-30T11:11:14.202Z,86.08
2018-08-30T11:13:42.855Z,86.31
2018-08-30T11:16:11.480Z,85.66
2018-08-30T11:18:40.170Z,85.24
2018-08-30T11:21:08.870Z,86.05
2018-08-30T11:23:37.564Z,86.31
2018-08-30T11:26:06.256Z,85.67
2018-08-30T11:28:34.927Z,85.66
2018-08-30T11:31:03.658Z,86.23
2018-08-30T11:33:32.293Z,86.68
2018-08-30T11:36:00.993Z,86.40
2018-08-30T11:38:29.672Z,86.22
2018-08-30T11:40:58.380Z,86.37
2018-08-30T11:43:27.036Z,85.94
2018-08-30T11:45:55.748Z,85.29
2018-08-30T11:48:24.477Z,85.02
2018-08-30T11:50:53.163Z,84.79
2018-08-30T11:53:21.850Z,84.47
2018-08-30T11:55:50.569Z,83.27
2018-08-30T11:58:19.304Z,84.14
2018-08-30T12:00:48.017Z,83.28
2018-08-30T12:03:17.040Z,83.32
2018-08-30T12:05:45.718Z,82.92
2018-08-30T12:08:14.439Z,83.89
2018-08-30T12:10:43.102Z,84.06
2018-08-30T12:13:11.739Z,83.71
2018-08-30T12:15:40.436Z,84.05
2018-08-30T12:18:09.200Z,83.88
2018-08-30T12:20:37.919Z,83.78
2018-08-30T12:23:06.603Z,83.56
2018-08-30T12:25:35.326Z,83.73
2018-08-30T12:28:03.983Z,83.63
2018-08-30T12:30:32.663Z,83.18
2018-08-30T12:33:01.300Z,82.98
2018-08-30T12:35:30.306Z,81.37
2018-08-30T12:37:59.154Z,78.52
2018-08-30T12:40:28.020Z,77.77
2018-08-30T12:42:56.875Z,76.41
2018-08-30T12:45:25.463Z,76.34
2018-08-30T12:47:54.194Z,76.15
2018-08-30T12:50:23.022Z,76.03
2018-08-30T12:52:51.789Z,74.71
2018-08-30T12:55:20.674Z,74.55
2018-08-30T12:57:49.559Z,74.48
2018-08-30T13:00:18.262Z,74.78
2018-08-30T13:02:46.873Z,75.54
2018-08-30T13:05:15.692Z,75.77
2018-08-30T13:07:45.156Z,76.20
2018-08-30T13:10:13.915Z,77.10
2018-08-30T13:12:42.548Z,75.26
2018-08-30T13:15:11.320Z,74.89
2018-08-30T13:17:39.816Z,76.10
2018-08-30T13:20:08.628Z,76.33
2018-08-30T13:22:37.467Z,75.90
2018-08-30T13:25:06.796Z,76.45
2018-08-30T13:27:35.281Z,76.97
2018-08-30T13:30:04.382Z,77.90
2018-08-30T13:32:33.021Z,77.86
2018-08-30T13:35:01.743Z,78.67
2018-08-30T13:37:30.183Z,77.73
2018-08-30T13:39:58.921Z,77.87
2018-08-30T13:42:27.488Z,77.63
2018-08-30T13:44:56.323Z,76.84
2018-08-30T13:47:24.856Z,76.93
2018-08-30T13:49:53.449Z,76.86
2018-08-30T13:52:22.277Z,76.78
2018-08-30T13:54:50.909Z,76.78
2018-08-30T13:57:20.044Z,77.62
2018-08-30T13:59:48.455Z,78.09
2018-08-30T14:02:17.064Z,78.65
2018-08-30T14:04:45.743Z,78.84
2018-08-30T14:07:14.376Z,78.96
2018-08-30T14:09:43.079Z,80.25
2018-08-30T14:12:11.956Z,81.00
2018-08-30T14:14:40.725Z,80.83
2018-08-30T14:17:09.129Z,81.38
2018-08-30T14:19:37.827Z,81.11
2018-08-30T14:22:06.480Z,81.75
2018-08-30T14:24:35.190Z,81.64
2018-08-30T14:27:04.522Z,82.18
2018-08-30T14:29:32.858Z,82.50
2018-08-30T14:32:01.518Z,82.65
2018-08-30T14:34:30.225Z,83.49
2018-08-30T14:36:58.900Z,83.98
2018-08-30T14:39:27.577Z,83.34
2018-08-30T14:41:56.353Z,83.50
2018-08-30T14:44:24.881Z,83.47
2018-08-30T14:46:54.243Z,83.64
2018-08-30T14:49:22.954Z,83.40
2018-08-30T14:51:51.628Z,83.37
2018-08-30T14:54:20.347Z,83.40
2018-08-30T14:56:49.590Z,83.18
2018-08-30T14:59:18.554Z,82.73
2018-08-30T15:01:47.443Z,82.13
2018-08-30T15:04:16.128Z,82.18
2018-08-30T15:06:44.783Z,81.67
2018-08-30T15:09:13.491Z,82.09
2018-08-30T15:11:42.196Z,82.31
2018-08-30T15:14:10.841Z,81.88
2018-08-30T15:16:39.516Z,81.41
2018-08-30T15:19:08.231Z,81.76
2018-08-30T15:21:36.888Z,81.63
2018-08-30T15:24:05.572Z,81.76
2018-08-30T15:26:34.462Z,81.41
2018-08-30T15:29:03.066Z,81.78
2018-08-30T15:31:31.769Z,81.35
2018-08-30T15:34:00.818Z,81.07
2018-08-30T15:36:29.302Z,80.90
2018-08-30T15:38:58.015Z,81.89
2018-08-30T15:41:26.934Z,81.91
2018-08-30T15:43:55.635Z,82.67
2018-08-30T15:46:24.319Z,82.60
2018-08-30T15:48:53.079Z,82.70
2018-08-30T15:51:21.674Z,82.90
2018-08-30T15:53:51.196Z,82.73
2018-08-30T15:56:19.856Z,82.44
2018-08-30T15:58:49.339Z,82.42
2018-08-30T16:01:18.015Z,83.69
2018-08-30T16:03:46.757Z,83.51
2018-08-30T16:06:15.422Z,83.61
2018-08-30T16:08:44.847Z,83.88
2018-08-30T16:11:13.586Z,83.37
2018-08-30T16:13:42.179Z,84.31
2018-08-30T16:16:10.871Z,84.56
2018-08-30T16:18:39.557Z,84.99
2018-08-30T16:21:08.301Z,84.62
2018-08-30T16:23:37.687Z,84.27
2018-08-30T16:26:06.877Z,84.72
2018-08-30T16:28:36.549Z,84.59
2018-08-30T16:31:05.276Z,84.80
2018-08-30T16:33:33.979Z,85.13
2018-08-30T16:36:02.689Z,85.53
2018-08-30T16:38:31.379Z,85.40
2018-08-30T16:41:00.143Z,85.87
2018-08-30T16:43:28.825Z,85.72
2018-08-30T16:45:58.928Z,86.74
2018-08-30T16:48:28.722Z,86.75
2018-08-30T16:50:57.939Z,87.63
2018-08-30T16:53:26.578Z,88.12
2018-08-30T16:55:55.249Z,88.50
2018-08-30T16:58:24.110Z,89.25
2018-08-30T17:00:52.741Z,89.52
2018-08-30T17:03:21.428Z,88.64
2018-08-30T17:05:50.532Z,88.39
2018-08-30T17:08:21.285Z,88.09
2018-08-30T17:10:51.369Z,87.43
2018-08-30T17:13:25.423Z,87.87
2018-08-30T17:15:54.651Z,86.56
2018-08-30T17:18:23.315Z,86.90
2018-08-30T17:20:53.546Z,85.93
2018-08-30T17:23:22.284Z,85.66
2018-08-30T17:25:50.873Z,85.19
2018-08-30T17:28:20.302Z,85.05
2018-08-30T17:30:48.904Z,84.67
2018-08-30T17:33:17.551Z,84.56
2018-08-30T17:35:46.310Z,84.34
2018-08-30T17:38:15.731Z,84.69
2018-08-30T17:40:44.771Z,84.95
2018-08-30T17:43:13.473Z,84.60
2018-08-30T17:45:42.196Z,84.50
2018-08-30T17:48:10.884Z,85.28
2018-08-30T17:50:39.716Z,85.57
2018-08-30T17:53:08.436Z,85.60
2018-08-30T17:55:37.067Z,85.08
2018-08-30T17:58:05.754Z,85.26
2018-08-30T18:00:34.428Z,85.16
2018-08-30T18:03:03.210Z,84.76
2018-08-30T18:05:32.202Z,84.05
2018-08-30T18:08:00.852Z,84.08
2018-08-30T18:10:30.531Z,84.39
2018-08-30T18:13:00.700Z,84.07
2018-08-30T18:15:30.102Z,83.97
2018-08-30T18:18:00.361Z,84.02
2018-08-30T18:20:29.134Z,83.86
2018-08-30T18:22:58.647Z,84.24
2018-08-30T18:25:29.024Z,83.60
2018-08-30T18:28:00.198Z,84.33
2018-08-30T18:30:28.913Z,83.79
2018-08-30T18:32:57.694Z,83.44
2018-08-30T18:35:28.352Z,82.56
2018-08-30T18:37:57.031Z,82.75
2018-08-30T18:40:26.782Z,83.55
2018-08-30T18:42:55.459Z,83.64
2018-08-30T18:45:24.134Z,83.18
2018-08-30T18:47:52.844Z,82.44
2018-08-30T18:50:22.951Z,82.24
2018-08-30T18:52:51.651Z,82.63
2018-08-30T18:55:20.356Z,82.67
2018-08-30T18:57:50.794Z,82.86
2018-08-30T19:00:19.573Z,83.10
2018-08-30T19:02:48.268Z,83.41
2018-08-30T19:05:16.973Z,83.50
2018-08-30T19:07:46.138Z,83.60
2018-08-30T19:10:15.227Z,83.50
2018-08-30T19:12:44.522Z,82.66
2018-08-30T19:15:18.985Z,83.00
2018-08-30T19:18:53.811Z,82.91
2018-08-30T19:21:22.556Z,83.39
2018-08-30T19:23:51.275Z,83.41
2018-08-30T19:26:20.151Z,82.76
2018-08-30T19:28:49.076Z,83.02
2018-08-30T19:31:17.759Z,83.35
2018-08-30T19:33:46.442Z,83.60
2018-08-30T19:36:20.511Z,83.34
2018-08-30T19:38:49.200Z,83.84
2018-08-30T19:41:21.129Z,82.93
2018-08-30T19:43:51.616Z,83.08
2018-08-30T19:46:21.164Z,83.30
2018-08-30T19:48:49.839Z,83.40
2018-08-30T19:51:18.510Z,84.44
2018-08-30T19:53:47.198Z,85.33
2018-08-30T19:56:16.240Z,85.34
2018-08-30T19:58:44.976Z,86.26
2018-08-30T20:01:13.643Z,85.98
2018-08-30T20:03:42.347Z,86.53
2018-08-30T20:06:10.981Z,86.56
2018-08-30T20:08:39.732Z,86.66
2018-08-30T20:11:08.399Z,86.74
2018-08-30T20:13:37.075Z,87.02
2018-08-30T20:16:06.230Z,87.27
2018-08-30T20:18:34.885Z,86.96
2018-08-30T20:21:03.613Z,87.62
2018-08-30T20:23:32.342Z,87.17
2018-08-30T20:26:01.041Z,86.83
2018-08-30T20:28:29.710Z,86.26
2018-08-30T20:30:59.460Z,86.12
2018-08-30T20:33:28.089Z,85.50
2018-08-30T20:35:56.833Z,84.94
2018-08-30T20:38:25.463Z,84.88
2018-08-30T20:40:54.578Z,84.78
2018-08-30T20:43:23.251Z,85.26
2018-08-30T20:45:51.971Z,84.86
2018-08-30T20:48:20.619Z,84.94
2018-08-30T20:50:49.346Z,84.80
2018-08-30T20:53:17.931Z,85.01
2018-08-30T20:55:46.683Z,85.49
2018-08-30T20:58:15.406Z,85.75
2018-08-30T21:00:44.016Z,85.80
2018-08-30T21:03:12.651Z,85.76
2018-08-30T21:05:41.335Z,85.82
2018-08-30T21:08:10.023Z,86.08
2018-08-30T21:10:38.821Z,86.37
2018-08-30T21:13:10.659Z,86.55
2018-08-30T21:15:39.372Z,86.16
2018-08-30T21:18:08.068Z,85.92
2018-08-30T21:20:36.794Z,85.87
2018-08-30T21:23:05.503Z,86.13
2018-08-30T21:25:34.199Z,85.74
2018-08-30T21:28:02.856Z,85.18
2018-08-30T21:30:31.578Z,85.40
2018-08-30T21:33:00.269Z,85.88
2018-08-30T21:35:28.936Z,86.50
2018-08-30T21:37:57.660Z,86.69
2018-08-30T21:40:26.308Z,87.09
2018-08-30T21:42:55.998Z,87.33
2018-08-30T21:45:24.788Z,87.24
2018-08-30T21:47:53.449Z,87.63
2018-08-30T21:50:22.111Z,87.65
2018-08-30T21:52:51.072Z,88.04
2018-08-30T21:55:19.848Z,88.49
2018-08-30T21:57:48.507Z,88.78
2018-08-30T22:00:17.186Z,88.19
2018-08-30T22:02:45.932Z,88.53
2018-08-30T22:05:14.577Z,88.98
2018-08-30T22:07:43.282Z,89.01
2018-08-30T22:10:11.963Z,88.97
2018-08-30T22:12:40.647Z,88.91
2018-08-30T22:15:09.292Z,89.31
2018-08-30T22:17:38.153Z,89.52
2018-08-30T22:20:06.943Z,89.46
2018-08-30T22:22:35.604Z,89.28
2018-08-30T22:25:04.311Z,89.49
2018-08-30T22:27:32.981Z,89.72
2018-08-30T22:30:01.865Z,89.81
2018-08-30T22:32:30.538Z,89.87
2018-08-30T22:34:59.200Z,89.91
2018-08-30T22:37:27.892Z,90.02
2018-08-30T22:39:56.615Z,89.47
2018-08-30T22:42:25.411Z,90.20
2018-08-30T22:44:54.170Z,90.34
2018-08-30T22:47:22.828Z,90.50
2018-08-30T22:49:51.471Z,90.54
2018-08-30T22:52:20.164Z,90.87
2018-08-30T22:54:48.810Z,90.07
2018-08-30T22:57:17.516Z,90.04
2018-08-30T22:59:46.160Z,89.82
2018-08-30T23:02:14.835Z,89.76
2018-08-30T23:04:43.611Z,90.05
2018-08-30T23:07:12.276Z,90.60
2018-08-30T23:09:40.965Z,90.30
2018-08-30T23:12:09.677Z,89.91
2018-08-30T23:14:38.317Z,89.84
2018-08-30T23:17:06.991Z,90.14
2018-08-30T23:19:35.674Z,90.41
2018-08-30T23:22:04.335Z,90.21
2018-08-30T23:24:32.971Z,90.26
2018-08-30T23:27:01.678Z,90.32
2018-08-30T23:29:30.300Z,90.38
2018-08-30T23:31:58.988Z,90.04
2018-08-30T23:34:27.633Z,90.52
2018-08-30T23:36:56.923Z,90.43
2018-08-30T23:39:25.692Z,90.36
2018-08-30T23:41:54.347Z,90.84
2018-08-30T23:44:23.002Z,90.73
2018-08-30T23:46:51.654Z,91.01
2018-08-30T23:49:20.339Z,90.78
2018-08-30T23:51:48.983Z,90.41
2018-08-30T23:54:17.639Z,91.00
2018-08-30T23:56:46.339Z,91.01
2018-08-30T23:59:26.220Z,91.41
